Time;durP1;ratioP1;P1;durP2;ratioP2;P2;SDS_P1;SDS_P2;PMS_P1;PMS_P2;Temp;Humidity;BMP_temperature;BMP_pressure;BME280_temperature;BME280_humidity;BME280_pressure;Samples;Min_cycle;Max_cycle;Signal;HPM_P1;HPM_P2
2022/07/09 00:02:08;;;;;;;3.55;1.80;;;;;;;16.01;73.32;99263.16;4351166;32;20091;-72
2022/07/09 00:04:35;;;;;;;7.07;2.30;;;;;;;16.00;73.24;99266.75;4351260;32;20091;-72
2022/07/09 00:07:03;;;;;;;4.72;1.70;;;;;;;15.95;73.42;99255.84;4364701;32;20501;-72
2022/07/09 00:09:30;;;;;;;5.20;1.55;;;;;;;15.95;73.49;99274.34;4364629;32;20137;-72
2022/07/09 00:11:57;;;;;;;2.65;1.58;;;;;;;16.01;73.30;99270.25;4364642;32;20095;-72
2022/07/09 00:14:25;;;;;;;3.10;1.58;;;;;;;15.91;73.97;99273.84;4364550;32;20087;-72
2022/07/09 00:16:52;;;;;;;5.70;1.92;;;;;;;15.90;73.73;99274.84;4364357;32;20098;-72
2022/07/09 00:19:19;;;;;;;2.55;1.50;;;;;;;15.81;74.14;99283.72;4364522;32;20099;-72
2022/07/09 00:21:47;;;;;;;3.22;1.52;;;;;;;15.83;73.87;99278.28;4364554;32;20158;-72
2022/07/09 00:24:14;;;;;;;3.15;1.65;;;;;;;15.78;73.98;99286.69;4364628;32;20083;-72
2022/07/09 00:26:41;;;;;;;6.37;1.70;;;;;;;15.76;74.03;99278.88;4364519;32;20146;-72
2022/07/09 00:29:08;;;;;;;6.20;1.73;;;;;;;15.65;74.32;99286.25;4364549;32;20117;-72
2022/07/09 00:31:35;;;;;;;3.65;1.55;;;;;;;15.59;74.75;99283.25;4364563;32;20169;-72
2022/07/09 00:34:03;;;;;;;2.45;1.67;;;;;;;15.57;74.96;99272.00;4364452;32;20134;-72
2022/07/09 00:36:30;;;;;;;5.68;1.92;;;;;;;15.49;75.09;99273.75;4364537;32;20473;-72
2022/07/09 00:38:57;;;;;;;3.22;1.55;;;;;;;15.43;75.50;99267.31;4364808;32;20475;-72
2022/07/09 00:41:24;;;;;;;3.58;1.55;;;;;;;15.36;75.76;99269.72;4364405;32;20098;-72
2022/07/09 00:43:51;;;;;;;3.97;1.42;;;;;;;15.35;75.92;99262.81;4364464;32;20087;-72
2022/07/09 00:46:18;;;;;;;4.47;1.58;;;;;;;15.22;76.44;99262.41;4363723;32;20098;-72
2022/07/09 00:48:46;;;;;;;5.12;1.65;;;;;;;15.20;76.78;99270.47;4364495;32;20082;-72
2022/07/09 00:51:14;;;;;;;2.20;1.48;;;;;;;15.16;76.77;99263.00;4364366;32;20087;-72
2022/07/09 00:53:41;;;;;;;3.25;1.85;;;;;;;15.08;77.13;99261.16;4364300;32;20092;-72
2022/07/09 00:56:09;;;;;;;2.05;1.62;;;;;;;15.00;77.19;99261.87;4364421;32;20496;-72
2022/07/09 00:58:36;;;;;;;8.15;1.80;;;;;;;15.06;77.11;99266.59;4364342;32;20099;-72
2022/07/09 01:01:03;;;;;;;4.18;1.80;;;;;;;14.98;77.42;99255.94;4350933;32;20441;-72
2022/07/09 01:03:31;;;;;;;3.00;1.58;;;;;;;14.93;77.67;99263.50;4364307;32;20087;-72
2022/07/09 01:05:58;;;;;;;6.15;1.90;;;;;;;14.95;77.77;99268.63;4364564;32;20094;-72
2022/07/09 01:08:25;;;;;;;12.75;1.95;;;;;;;14.87;77.95;99264.94;4364341;32;20102;-72
2022/07/09 01:10:53;;;;;;;1.55;1.30;;;;;;;14.87;77.90;99262.31;4364322;32;20169;-72
2022/07/09 01:13:20;;;;;;;4.37;2.00;;;;;;;14.88;77.91;99263.13;4364027;32;20078;-72
2022/07/09 01:15:47;;;;;;;3.25;1.50;;;;;;;14.85;78.00;99255.50;4364270;32;20099;-72
2022/07/09 01:18:15;;;;;;;6.40;1.85;;;;;;;14.78;78.38;99254.50;4364042;32;20091;-72
2022/07/09 01:20:42;;;;;;;8.88;2.05;;;;;;;14.78;78.33;99254.50;4364185;32;20122;-72
2022/07/09 01:23:10;;;;;;;3.17;1.75;;;;;;;14.73;78.57;99247.00;4364190;32;20099;-72
2022/07/09 01:25:41;;;;;;;7.35;1.50;;;;;;;14.70;78.72;99253.44;4364231;32;20095;-72
2022/07/09 01:28:09;;;;;;;4.05;1.65;;;;;;;14.72;78.73;99248.00;4364228;32;20449;-72
2022/07/09 01:30:38;;;;;;;3.62;2.05;;;;;;;14.71;78.77;99243.69;4364438;32;20092;-72
2022/07/09 01:33:06;;;;;;;4.55;1.73;;;;;;;14.61;79.33;99237.66;4363959;32;20142;-72
2022/07/09 01:35:33;;;;;;;5.03;1.80;;;;;;;14.56;79.43;99230.19;4364111;32;20162;-72
2022/07/09 01:38:00;;;;;;;6.62;2.70;;;;;;;14.50;79.65;99236.91;4364068;32;20107;-72
2022/07/09 01:40:28;;;;;;;5.22;1.80;;;;;;;14.48;79.65;99222.22;4364271;32;20425;-72
2022/07/09 01:42:55;;;;;;;5.22;1.80;;;;;;;14.49;79.67;99229.16;4363984;32;20158;-72
2022/07/09 01:45:22;;;;;;;2.90;1.85;;;;;;;14.44;80.05;99220.84;4364028;32;20138;-72
2022/07/09 01:47:49;;;;;;;5.32;2.15;;;;;;;14.42;79.96;99222.81;4363867;32;20098;-72
2022/07/09 01:50:17;;;;;;;5.18;2.17;;;;;;;14.40;80.23;99207.16;4363806;32;20484;-72
2022/07/09 01:52:44;;;;;;;4.50;2.00;;;;;;;14.27;80.80;99207.50;4363815;32;20151;-72
2022/07/09 01:55:11;;;;;;;3.10;1.58;;;;;;;14.27;80.79;99218.06;4363684;32;20433;-72
2022/07/09 01:57:38;;;;;;;6.05;1.95;;;;;;;14.25;80.94;99217.38;4363801;32;20166;-72
2022/07/09 02:00:06;;;;;;;3.45;1.75;;;;;;;14.27;80.84;99219.88;4363793;32;20095;-72
2022/07/09 02:02:38;;;;;;;3.87;1.77;;;;;;;14.26;80.85;99212.94;4363969;32;20083;-72
2022/07/09 02:05:06;;;;;;;5.75;2.10;;;;;;;14.24;81.09;99207.00;4363823;32;20094;-72
2022/07/09 02:07:33;;;;;;;12.23;3.37;;;;;;;14.17;81.43;99214.66;4363852;32;20103;-72
2022/07/09 02:10:01;;;;;;;4.68;2.00;;;;;;;14.11;81.54;99204.72;4363624;32;20091;-72
2022/07/09 02:12:28;;;;;;;5.68;2.40;;;;;;;14.12;81.56;99212.47;4363345;32;20107;-72
2022/07/09 02:14:55;;;;;;;6.45;1.77;;;;;;;14.14;81.69;99212.31;4363533;32;20118;-72
2022/07/09 02:17:22;;;;;;;4.03;1.77;;;;;;;14.07;82.05;99203.38;4363345;32;20121;-72
2022/07/09 02:19:50;;;;;;;3.00;1.87;;;;;;;14.05;82.17;99208.78;4363581;32;20091;-72
2022/07/09 02:22:17;;;;;;;5.87;2.10;;;;;;;14.07;82.11;99206.81;4357570;32;20658;-72
2022/07/09 02:24:44;;;;;;;7.10;2.15;;;;;;;14.02;82.50;99206.47;4363544;32;20107;-72
2022/07/09 02:27:11;;;;;;;4.97;2.03;;;;;;;13.99;82.60;99206.75;4363350;32;20137;-72
2022/07/09 02:29:39;;;;;;;3.10;1.98;;;;;;;13.91;83.07;99206.66;4363419;32;20539;-72
2022/07/09 02:32:06;;;;;;;5.03;1.67;;;;;;;13.91;83.14;99202.19;4363347;32;20114;-72
2022/07/09 02:34:34;;;;;;;6.32;1.80;;;;;;;13.90;83.12;99203.19;4363238;32;20123;-72
2022/07/09 02:37:01;;;;;;;7.22;2.20;;;;;;;13.90;83.32;99212.88;4363412;32;20103;-72
2022/07/09 02:39:28;;;;;;;3.60;2.00;;;;;;;13.93;83.14;99221.34;4363362;32;20114;-72
2022/07/09 02:41:55;;;;;;;4.53;2.00;;;;;;;13.93;83.33;99209.94;4363052;32;20091;-72
2022/07/09 02:44:22;;;;;;;7.57;1.95;;;;;;;13.97;83.14;99219.22;4349907;32;20469;-72
2022/07/09 02:46:49;;;;;;;10.35;2.53;;;;;;;13.95;83.31;99223.81;4363176;32;20169;-72
2022/07/09 02:49:17;;;;;;;5.12;2.03;;;;;;;13.93;83.45;99218.72;4363243;32;20087;-72
2022/07/09 02:51:45;;;;;;;7.05;2.30;;;;;;;13.96;83.43;99218.41;4363044;32;20103;-72
2022/07/09 02:54:12;;;;;;;7.03;2.50;;;;;;;13.90;83.73;99213.72;4363280;32;20484;-72
2022/07/09 02:56:39;;;;;;;4.28;2.10;;;;;;;13.92;83.74;99222.31;4363006;32;20121;-72
2022/07/09 02:59:06;;;;;;;8.55;3.75;;;;;;;13.86;83.97;99220.25;4362853;32;20083;-72
2022/07/09 03:01:34;;;;;;;4.37;2.17;;;;;;;13.84;84.24;99222.22;4362934;32;20087;-72
2022/07/09 03:04:01;;;;;;;5.78;2.37;;;;;;;13.85;84.30;99226.50;4363096;32;20429;-72
2022/07/09 03:06:28;;;;;;;5.62;2.40;;;;;;;13.88;84.31;99214.84;4363255;32;20470;-72
2022/07/09 03:08:55;;;;;;;7.82;2.53;;;;;;;13.95;83.99;99213.28;4363841;32;20087;-72
2022/07/09 03:11:23;;;;;;;5.20;2.47;;;;;;;13.97;83.94;99213.97;4365163;32;20414;-72
2022/07/09 03:13:50;;;;;;;3.85;2.17;;;;;;;13.99;83.79;99204.94;4365013;32;20083;-72
2022/07/09 03:16:17;;;;;;;3.90;2.10;;;;;;;14.05;83.67;99210.59;4364900;32;20121;-71
2022/07/09 03:18:45;;;;;;;3.08;2.17;;;;;;;14.13;83.26;99208.87;4364904;32;20489;-72
2022/07/09 03:21:12;;;;;;;8.68;2.28;;;;;;;14.12;83.26;99222.19;4365019;32;20079;-72
2022/07/09 03:23:59;;;;;;;3.83;2.85;;;;;;;14.13;83.01;99216.78;4365287;32;20125;-72
2022/07/09 03:26:46;;;;;;;3.72;2.65;;;;;;;14.15;83.37;99216.63;4364628;32;20174;-72
2022/07/09 03:29:33;;;;;;;4.47;2.33;;;;;;;14.20;83.21;99222.25;4365194;32;20087;-72
2022/07/09 03:32:21;;;;;;;6.65;2.50;;;;;;;14.29;82.64;99221.38;4365080;32;20493;-72
2022/07/09 03:35:08;;;;;;;6.75;2.70;;;;;;;14.25;82.80;99222.66;4365015;32;20115;-72
2022/07/09 03:37:55;;;;;;;4.53;2.55;;;;;;;14.31;82.51;99226.50;4364479;32;20103;-72
2022/07/09 03:40:22;;;;;;;3.65;2.47;;;;;;;14.26;82.48;99228.75;4364890;32;20083;-72
2022/07/09 03:42:50;;;;;;;4.40;2.42;;;;;;;14.29;82.46;99226.66;4364825;32;20138;-72
2022/07/09 03:45:17;;;;;;;5.07;2.60;;;;;;;14.27;82.46;99240.97;4364970;32;20099;-72
2022/07/09 03:47:44;;;;;;;6.25;3.00;;;;;;;14.27;82.46;99240.97;4364671;32;20099;-72
2022/07/09 03:50:12;;;;;;;4.65;2.75;;;;;;;14.31;82.14;99235.25;4364852;32;20508;-72
2022/07/09 03:52:39;;;;;;;4.93;2.47;;;;;;;14.28;82.51;99229.44;4364813;32;20507;-72
2022/07/09 03:55:06;;;;;;;4.75;2.22;;;;;;;14.35;82.19;99235.75;4364759;32;20596;-72
2022/07/09 03:57:34;;;;;;;5.45;2.50;;;;;;;14.44;81.78;99232.22;4364790;32;20153;-72
2022/07/09 04:00:01;;;;;;;3.30;2.20;;;;;;;14.38;81.95;99233.66;4364704;32;20086;-72
2022/07/09 04:02:38;;;;;;;4.97;2.60;;;;;;;14.38;81.73;99235.44;4364779;32;20398;-72
2022/07/09 04:05:07;;;;;;;4.55;2.80;;;;;;;14.30;82.11;99235.38;4364691;32;20103;-72
2022/07/09 04:07:35;;;;;;;10.35;3.00;;;;;;;14.41;81.54;99236.97;4364926;32;20145;-72
2022/07/09 04:10:03;;;;;;;5.12;2.65;;;;;;;14.57;80.83;99231.84;4364811;32;20087;-72
2022/07/09 04:12:30;;;;;;;5.20;2.65;;;;;;;14.57;80.84;99242.41;4364815;32;20117;-72
2022/07/09 04:14:57;;;;;;;5.68;2.80;;;;;;;14.58;80.73;99237.94;4364523;32;20152;-72
2022/07/09 04:17:24;;;;;;;6.68;2.75;;;;;;;14.63;80.34;99236.56;4364383;32;20457;-72
2022/07/09 04:19:51;;;;;;;6.57;2.60;;;;;;;14.73;80.01;99239.09;4363599;32;20154;-72
2022/07/09 04:22:19;;;;;;;7.22;2.80;;;;;;;14.63;80.12;99239.19;4364671;32;20117;-72
2022/07/09 04:24:46;;;;;;;5.00;2.33;;;;;;;14.66;80.18;99243.34;4364579;32;20098;-72
2022/07/09 04:27:13;;;;;;;4.65;2.50;;;;;;;14.76;79.74;99240.59;4364636;32;20161;-72
2022/07/09 04:29:40;;;;;;;5.75;2.50;;;;;;;14.81;79.20;99241.81;4364536;32;20084;-72
2022/07/09 04:32:07;;;;;;;5.55;2.22;;;;;;;15.01;78.53;99245.09;4364809;32;20087;-72
2022/07/09 04:34:35;;;;;;;3.92;2.12;;;;;;;14.93;78.45;99242.41;4364474;32;20102;-72
2022/07/09 04:37:02;;;;;;;4.18;2.35;;;;;;;14.96;78.38;99242.09;4364418;32;20436;-72
2022/07/09 04:39:29;;;;;;;3.92;2.37;;;;;;;14.78;79.25;99243.94;4364506;32;20087;-72
2022/07/09 04:41:57;;;;;;;6.97;2.60;;;;;;;14.83;79.23;99246.94;4364772;32;20118;-72
2022/07/09 04:44:24;;;;;;;8.95;2.55;;;;;;;14.96;78.83;99252.66;4364525;32;20117;-72
2022/07/09 04:46:51;;;;;;;6.32;3.10;;;;;;;14.98;78.36;99250.66;4364527;32;20086;-72
2022/07/09 04:49:20;;;;;;;5.43;2.22;;;;;;;14.90;78.38;99253.25;4364349;32;20126;-72
2022/07/09 04:51:47;;;;;;;4.55;2.60;;;;;;;14.77;78.81;99248.38;4364339;32;20091;-72
2022/07/09 04:54:15;;;;;;;6.25;2.40;;;;;;;14.58;79.61;99251.97;4358127;32;20150;-72
2022/07/09 04:56:42;;;;;;;5.90;2.78;;;;;;;14.57;79.78;99245.03;4364356;32;20535;-72
2022/07/09 04:59:09;;;;;;;6.00;2.60;;;;;;;14.51;80.31;99253.56;4364324;32;20564;-72
2022/07/09 05:01:36;;;;;;;5.18;3.17;;;;;;;14.40;80.77;99243.22;4364323;32;20109;-72
2022/07/09 05:04:04;;;;;;;4.03;2.55;;;;;;;14.47;80.53;99245.09;4364305;32;20471;-72
2022/07/09 05:06:31;;;;;;;4.22;2.45;;;;;;;14.50;80.27;99252.72;4364442;32;20086;-72
2022/07/09 05:08:58;;;;;;;6.53;2.87;;;;;;;14.50;80.26;99252.72;4364151;32;20487;-72
2022/07/09 05:11:25;;;;;;;8.18;2.47;;;;;;;14.41;80.68;99252.78;4364148;32;20158;-72
2022/07/09 05:13:52;;;;;;;5.40;2.70;;;;;;;14.57;80.22;99250.31;4364142;32;20092;-72
2022/07/09 05:16:19;;;;;;;4.97;2.72;;;;;;;14.89;78.88;99248.97;4364194;32;20099;-71
2022/07/09 05:18:47;;;;;;;5.28;2.50;;;;;;;15.17;77.54;99248.81;4364042;32;20145;-72
2022/07/09 05:21:14;;;;;;;11.65;2.78;;;;;;;15.41;76.60;99251.63;4364144;32;20385;-72
2022/07/09 05:23:42;;;;;;;6.25;2.97;;;;;;;15.48;75.84;99261.56;4364252;32;20121;-72
2022/07/09 05:26:10;;;;;;;6.60;2.70;;;;;;;15.67;75.16;99255.22;4364126;32;20602;-72
2022/07/09 05:28:37;;;;;;;4.62;2.37;;;;;;;15.86;74.74;99264.75;4364195;32;20450;-72
2022/07/09 05:31:05;;;;;;;7.90;3.17;;;;;;;15.84;74.67;99264.09;4363632;32;20430;-72
2022/07/09 05:33:52;;;;;;;5.15;2.45;;;;;;;15.93;74.29;99260.50;4352870;32;20087;-72
2022/07/09 05:36:19;;;;;;;7.82;2.55;;;;;;;15.94;74.06;99262.97;4363950;32;20503;-72
2022/07/09 05:38:47;;;;;;;5.30;2.53;;;;;;;16.19;73.04;99257.75;4364104;32;20563;-72
2022/07/09 05:41:15;;;;;;;6.28;2.58;;;;;;;16.30;72.64;99253.97;4364003;32;20516;-72
2022/07/09 05:43:42;;;;;;;5.07;2.80;;;;;;;16.32;72.69;99257.28;4363988;32;20091;-73
2022/07/09 05:46:10;;;;;;;7.85;2.80;;;;;;;16.24;73.44;99257.28;4364081;32;20161;-72
2022/07/09 05:48:37;;;;;;;3.78;2.53;;;;;;;16.23;73.30;99260.88;4363959;32;20114;-72
2022/07/09 05:51:05;;;;;;;6.28;4.10;;;;;;;16.38;72.46;99250.50;4363892;32;20129;-72
2022/07/09 05:53:32;;;;;;;6.95;3.12;;;;;;;16.68;71.98;99257.00;4350598;32;20107;-73
2022/07/09 05:56:00;;;;;;;5.80;2.42;;;;;;;16.75;71.04;99254.53;4363922;32;20165;-72
2022/07/09 05:58:27;;;;;;;3.10;2.70;;;;;;;16.44;72.08;99253.34;4363940;32;20150;-72
2022/07/09 06:00:54;;;;;;;5.65;2.40;;;;;;;16.34;72.49;99252.66;4363842;32;20091;-72
2022/07/09 06:03:21;;;;;;;5.03;2.70;;;;;;;16.49;71.72;99247.56;4363695;32;20452;-72
2022/07/09 06:05:48;;;;;;;4.37;2.65;;;;;;;16.55;71.79;99256.66;4363822;32;20095;-72
2022/07/09 06:08:16;;;;;;;4.62;2.67;;;;;;;16.68;71.42;99254.34;4363811;32;20106;-72
2022/07/09 06:10:43;;;;;;;5.37;2.60;;;;;;;16.81;70.94;99248.59;4363713;32;20095;-72
2022/07/09 06:13:10;;;;;;;4.37;2.47;;;;;;;16.92;70.62;99250.91;4363596;32;20430;-72
2022/07/09 06:15:37;;;;;;;6.90;3.00;;;;;;;17.05;69.39;99239.00;4363732;32;20091;-72
2022/07/09 06:18:05;;;;;;;6.95;2.80;;;;;;;16.97;68.86;99255.69;4363629;32;20206;-72
2022/07/09 06:20:32;;;;;;;3.62;2.40;;;;;;;16.99;68.60;99251.09;4363581;32;20134;-73
2022/07/09 06:23:06;;;;;;;9.98;2.95;;;;;;;17.08;68.65;99250.09;4363645;32;20146;-73
2022/07/09 06:25:34;;;;;;;4.60;2.67;;;;;;;17.14;68.10;99249.41;4363460;32;20095;-72
2022/07/09 06:28:01;;;;;;;6.97;2.90;;;;;;;17.16;68.53;99257.19;4363489;32;20113;-72
2022/07/09 06:30:29;;;;;;;6.82;2.83;;;;;;;17.11;68.41;99249.75;4363404;32;20096;-72
2022/07/09 06:33:16;;;;;;;3.70;2.78;;;;;;;17.22;68.45;99247.75;4363332;32;20119;-72
2022/07/09 06:35:43;;;;;;;4.20;2.60;;;;;;;17.32;67.86;99253.66;4363160;32;20185;-72
2022/07/09 06:38:10;;;;;;;4.40;2.85;;;;;;;17.34;67.93;99249.06;4363334;32;20110;-72
2022/07/09 06:40:38;;;;;;;10.80;3.15;;;;;;;17.45;67.75;99243.38;4363627;32;20150;-72
2022/07/09 06:43:05;;;;;;;4.37;2.58;;;;;;;17.46;66.87;99257.47;4363237;32;20099;-72
2022/07/09 06:45:32;;;;;;;5.43;2.97;;;;;;;17.45;67.22;99258.47;4365552;32;20094;-72
2022/07/09 06:48:00;;;;;;;5.37;2.70;;;;;;;17.73;66.72;99253.56;4365309;32;20117;-72
2022/07/09 06:50:27;;;;;;;6.57;2.62;;;;;;;18.01;65.99;99251.31;4365099;32;20114;-72
2022/07/09 06:52:54;;;;;;;5.40;2.70;;;;;;;17.91;66.24;99250.69;4365220;32;20126;-72
2022/07/09 06:55:21;;;;;;;8.32;3.25;;;;;;;18.03;65.49;99248.50;4365300;32;20449;-72
2022/07/09 06:57:49;;;;;;;8.02;3.12;;;;;;;17.95;65.30;99254.66;4365089;32;20586;-72
2022/07/09 07:00:16;;;;;;;6.07;2.65;;;;;;;17.96;65.05;99256.31;4365209;32;20083;-72
2022/07/09 07:02:43;;;;;;;5.97;2.70;;;;;;;17.95;65.46;99252.00;4365495;32;20099;-72
2022/07/09 07:05:10;;;;;;;4.35;2.60;;;;;;;17.96;65.43;99247.56;4365148;32;20111;-73
2022/07/09 07:07:44;;;;;;;4.35;2.80;;;;;;;18.04;65.65;99245.66;4365160;32;20082;-72
2022/07/09 07:10:11;;;;;;;5.45;2.50;;;;;;;18.19;63.74;99252.91;4364947;32;20083;-72
2022/07/09 07:12:40;;;;;;;8.07;2.42;;;;;;;18.22;64.01;99258.66;4365082;32;20091;-72
2022/07/09 07:15:08;;;;;;;4.32;2.67;;;;;;;18.19;64.17;99259.00;4365012;32;20163;-73
2022/07/09 07:17:35;;;;;;;5.15;2.60;;;;;;;18.23;63.78;99248.91;4364846;32;20160;-72
2022/07/09 07:20:03;;;;;;;3.42;2.78;;;;;;;18.36;63.34;99257.09;4365209;32;20087;-72
2022/07/09 07:22:30;;;;;;;5.37;2.53;;;;;;;18.47;63.19;99249.72;4364991;32;20092;-72
2022/07/09 07:24:57;;;;;;;6.70;2.50;;;;;;;18.61;61.72;99252.44;4364933;32;20115;-72
2022/07/09 07:27:24;;;;;;;5.07;2.65;;;;;;;18.75;62.00;99258.81;4351611;32;20047;-73
2022/07/09 07:29:51;;;;;;;7.00;2.67;;;;;;;18.83;62.10;99247.28;4364929;32;20161;-72
2022/07/09 07:32:19;;;;;;;5.10;3.00;;;;;;;19.08;61.30;99247.13;4364947;32;20174;-73
2022/07/09 07:34:46;;;;;;;3.40;2.20;;;;;;;19.26;60.50;99246.78;4364873;32;20240;-72
2022/07/09 07:37:13;;;;;;;2.90;2.53;;;;;;;19.47;59.63;99248.72;4364896;32;20111;-72
2022/07/09 07:39:40;;;;;;;5.57;2.10;;;;;;;19.35;59.48;99258.12;4364874;32;20129;-73
2022/07/09 07:42:07;;;;;;;5.72;2.30;;;;;;;19.43;59.62;99250.09;4364807;32;20099;-72
2022/07/09 07:44:34;;;;;;;4.62;2.60;;;;;;;19.58;59.18;99252.75;4364924;32;20095;-72
2022/07/09 07:47:02;;;;;;;4.03;2.53;;;;;;;19.57;59.12;99246.59;4364784;32;20432;-72
2022/07/09 07:49:29;;;;;;;4.57;2.00;;;;;;;19.83;58.34;99248.00;4364860;32;20129;-73
2022/07/09 07:51:56;;;;;;;3.67;2.35;;;;;;;20.05;57.32;99243.56;4364774;32;20151;-72
2022/07/09 07:54:24;;;;;;;3.17;2.30;;;;;;;20.27;56.71;99236.44;4364684;32;20129;-72
2022/07/09 07:56:51;;;;;;;5.35;2.28;;;;;;;20.05;56.50;99253.37;4364679;32;20075;-72
2022/07/09 07:59:18;;;;;;;2.83;2.17;;;;;;;20.15;57.50;99238.78;4364772;32;20103;-72
2022/07/09 08:01:45;;;;;;;4.35;2.03;;;;;;;20.43;55.87;99232.72;4364564;32;20133;-73
2022/07/09 08:04:13;;;;;;;1.80;1.70;;;;;;;20.57;54.94;99241.66;4364774;32;20445;-73
2022/07/09 08:06:40;;;;;;;5.47;2.03;;;;;;;20.42;54.76;99238.22;4364643;32;20113;-72
2022/07/09 08:09:07;;;;;;;3.60;2.17;;;;;;;20.24;55.19;99236.81;4364718;32;20091;-72
2022/07/09 08:11:35;;;;;;;4.15;2.05;;;;;;;20.44;55.18;99228.19;4364652;32;20220;-73
2022/07/09 08:14:02;;;;;;;4.15;2.12;;;;;;;20.25;54.34;99230.47;4364688;32;20118;-73
2022/07/09 08:16:30;;;;;;;3.00;1.55;;;;;;;20.73;55.13;99214.78;4364461;32;20156;-73
2022/07/09 08:18:57;;;;;;;4.43;2.10;;;;;;;21.04;53.47;99220.75;4364361;32;20550;-73
2022/07/09 08:21:24;;;;;;;3.50;2.08;;;;;;;20.90;52.73;99225.97;4364891;32;20099;-72
2022/07/09 08:23:51;;;;;;;5.82;1.62;;;;;;;20.73;53.72;99220.12;4364854;32;20082;-72
2022/07/09 08:26:24;;;;;;;3.83;2.40;;;;;;;20.82;52.26;99214.69;4364539;32;20091;-72
2022/07/09 08:28:51;;;;;;;4.40;1.70;;;;;;;20.92;52.89;99217.81;4364646;32;20094;-72
2022/07/09 08:31:19;;;;;;;5.35;2.10;;;;;;;20.94;52.07;99212.28;4364506;32;20170;-73
2022/07/09 08:33:47;;;;;;;3.03;1.62;;;;;;;20.89;51.81;99218.19;4364453;32;20153;-72
2022/07/09 08:36:15;;;;;;;2.65;1.52;;;;;;;21.08;52.34;99216.69;4364470;32;20397;-73
2022/07/09 08:38:43;;;;;;;2.15;1.42;;;;;;;21.21;50.13;99215.94;4364484;32;20110;-72
2022/07/09 08:41:12;;;;;;;5.53;1.92;;;;;;;21.21;50.65;99219.47;4364515;32;20107;-73
2022/07/09 08:43:39;;;;;;;5.90;1.83;;;;;;;21.21;50.28;99213.28;4364430;32;20090;-73
2022/07/09 08:46:06;;;;;;;3.97;1.70;;;;;;;21.53;48.88;99211.88;4364489;32;20457;-73
2022/07/09 08:48:35;;;;;;;4.40;1.75;;;;;;;21.69;48.85;99210.72;4364471;32;20098;-73
2022/07/09 08:51:04;;;;;;;2.75;1.58;;;;;;;21.86;48.25;99223.72;4364489;32;20103;-73
2022/07/09 08:53:31;;;;;;;3.90;1.58;;;;;;;22.11;48.07;99194.66;4364535;32;20122;-73
2022/07/09 08:55:59;;;;;;;4.55;1.67;;;;;;;22.19;47.14;99207.00;4364283;32;20103;-72
2022/07/09 08:58:26;;;;;;;4.93;1.58;;;;;;;22.13;46.48;99204.12;4364506;32;20079;-73
2022/07/09 09:00:53;;;;;;;5.85;1.67;;;;;;;22.15;46.59;99196.72;4364480;32;20129;-73
2022/07/09 09:03:20;;;;;;;3.90;1.60;;;;;;;22.23;45.64;99195.69;4364364;32;20121;-73
2022/07/09 09:06:02;;;;;;;3.12;1.77;;;;;;;22.09;46.22;99186.00;4363698;32;20153;-72
2022/07/09 09:08:40;;;;;;;2.70;1.30;;;;;;;22.01;46.24;99200.34;4364231;32;20094;-73
2022/07/09 09:11:15;;;;;;;5.15;2.03;;;;;;;22.14;45.86;99200.41;4364308;32;20109;-73
2022/07/09 09:13:44;;;;;;;3.15;1.55;;;;;;;22.25;45.12;99188.31;4364601;32;20087;-73
2022/07/09 09:16:13;;;;;;;5.57;1.48;;;;;;;22.44;45.15;99184.06;4364142;32;20109;-73
2022/07/09 09:18:51;;;;;;;3.70;1.50;;;;;;;22.64;44.62;99188.59;4364306;32;20126;-73
2022/07/09 09:21:21;;;;;;;3.22;1.40;;;;;;;22.56;42.24;99194.13;4364241;32;20099;-72
2022/07/09 09:23:50;;;;;;;2.97;1.33;;;;;;;22.29;42.89;99191.41;4364176;32;20079;-72
2022/07/09 09:26:25;;;;;;;3.35;1.40;;;;;;;22.36;43.87;99186.91;4364436;32;20440;-72
2022/07/09 09:29:01;;;;;;;2.50;1.62;;;;;;;22.45;43.69;99177.72;4364125;32;20170;-73
2022/07/09 09:31:29;;;;;;;2.85;1.67;;;;;;;22.71;43.29;99181.41;4364620;32;20151;-73
2022/07/09 09:34:09;;;;;;;2.53;1.20;;;;;;;22.73;42.11;99178.53;4364166;32;20090;-73
2022/07/09 09:36:42;;;;;;;5.47;1.40;;;;;;;22.39;40.86;99183.88;4364085;32;20509;-73
2022/07/09 09:39:24;;;;;;;2.72;1.70;;;;;;;22.52;41.79;99180.38;4364021;32;20457;-73
2022/07/09 09:41:51;;;;;;;2.78;1.20;;;;;;;22.89;42.29;99163.91;4364176;32;20099;-73
2022/07/09 09:44:19;;;;;;;5.18;1.40;;;;;;;22.72;41.13;99175.03;4363867;32;20186;-73
2022/07/09 09:46:47;;;;;;;3.12;1.37;;;;;;;22.88;40.41;99184.47;4364080;32;20105;-72
2022/07/09 09:49:15;;;;;;;5.90;1.70;;;;;;;22.50;40.71;99172.56;4363961;32;20449;-73
2022/07/09 09:52:04;;;;;;;1.80;1.30;;;;;;;22.54;41.72;99183.66;4363879;32;20095;-73
2022/07/09 09:54:32;;;;;;;3.50;1.10;;;;;;;22.63;40.68;99177.06;4350555;32;20115;-72
2022/07/09 09:57:05;;;;;;;2.55;1.55;;;;;;;22.70;39.21;99174.41;4363840;32;20114;-73
2022/07/09 09:59:34;;;;;;;1.50;1.17;;;;;;;22.87;39.45;99182.81;4363869;32;20083;-73
2022/07/09 10:02:01;;;;;;;2.22;1.12;;;;;;;22.93;39.33;99181.19;4350477;32;20094;-73
2022/07/09 10:04:29;;;;;;;1.58;1.02;;;;;;;22.86;39.84;99170.47;4363765;32;20098;-73
2022/07/09 10:06:56;;;;;;;5.32;1.10;;;;;;;23.21;39.72;99183.63;4364019;32;20542;-73
2022/07/09 10:09:23;;;;;;;5.68;1.58;;;;;;;23.13;39.82;99171.28;4363802;32;20567;-73
2022/07/09 10:11:51;;;;;;;3.58;1.17;;;;;;;23.07;40.24;99182.78;4363676;32;20163;-73
2022/07/09 10:14:23;;;;;;;3.40;1.30;;;;;;;23.08;40.04;99157.72;4363512;32;20098;-73
2022/07/09 10:16:52;;;;;;;3.08;1.15;;;;;;;23.14;40.53;99153.44;4363570;32;20091;-72
2022/07/09 10:19:26;;;;;;;3.50;1.25;;;;;;;23.58;39.59;99157.19;4364762;32;20218;-73
2022/07/09 10:21:55;;;;;;;6.95;1.27;;;;;;;23.69;38.65;99153.81;4365464;32;20110;-73
2022/07/09 10:24:30;;;;;;;8.82;1.15;;;;;;;23.69;37.67;99153.81;4365458;32;20571;-73
2022/07/09 10:27:06;;;;;;;4.05;1.15;;;;;;;23.36;38.28;99153.97;4365697;32;20087;-73
2022/07/09 10:29:34;;;;;;;3.92;1.08;;;;;;;23.59;38.20;99141.94;4365434;32;20084;-73
2022/07/09 10:32:03;;;;;;;5.20;1.48;;;;;;;23.90;37.68;99136.66;4365353;32;20099;-73
2022/07/09 10:34:51;;;;;;;3.20;1.20;;;;;;;23.71;38.18;99142.94;4352002;32;20102;-73
2022/07/09 10:37:33;;;;;;;3.35;1.08;;;;;;;23.69;37.43;99139.63;4365291;32;20087;-72
2022/07/09 10:40:19;;;;;;;4.15;1.25;;;;;;;23.89;37.71;99148.41;4365366;32;20076;-73
2022/07/09 10:43:02;;;;;;;4.40;1.15;;;;;;;23.86;38.30;99130.13;4365391;32;20129;-73
2022/07/09 10:45:45;;;;;;;1.92;1.10;;;;;;;23.95;38.02;99133.34;4365439;32;20425;-73
2022/07/09 10:48:14;;;;;;;1.20;1.10;;;;;;;24.28;37.80;99137.66;4365235;32;20149;-73
2022/07/09 10:50:48;;;;;;;4.05;1.30;;;;;;;23.98;37.72;99114.19;4365043;32;20141;-73
2022/07/09 10:53:17;;;;;;;2.50;0.93;;;;;;;24.06;37.88;99131.84;4359094;32;20135;-73
2022/07/09 10:55:47;;;;;;;5.65;1.27;;;;;;;23.82;37.60;99136.09;4365219;32;20091;-73
2022/07/09 10:58:18;;;;;;;1.62;1.02;;;;;;;24.04;37.36;99124.03;4365286;32;20153;-73
2022/07/09 11:00:57;;;;;;;3.30;1.10;;;;;;;24.28;37.78;99118.91;4365195;32;20441;-73
2022/07/09 11:03:29;;;;;;;2.28;1.20;;;;;;;24.20;36.25;99117.31;4365257;32;20109;-73
2022/07/09 11:05:57;;;;;;;3.25;1.08;;;;;;;23.89;36.99;99123.50;4365130;32;20106;-73
2022/07/09 11:08:25;;;;;;;2.75;1.00;;;;;;;24.47;36.20;99127.00;4365049;32;20083;-73
2022/07/09 11:10:52;;;;;;;2.80;1.10;;;;;;;24.69;35.59;99111.38;4364989;32;20433;-73
2022/07/09 11:13:23;;;;;;;3.22;1.00;;;;;;;24.58;36.08;99113.75;4365400;32;20123;-73
2022/07/09 11:15:50;;;;;;;2.87;1.10;;;;;;;24.58;36.11;99116.41;4365073;32;20086;-73
2022/07/09 11:18:18;;;;;;;2.30;1.05;;;;;;;24.81;35.28;99106.94;4351529;32;20095;-72
2022/07/09 11:20:47;;;;;;;2.03;0.90;;;;;;;24.77;35.32;99122.66;4365353;32;20496;-73
2022/07/09 11:23:15;;;;;;;2.25;1.08;;;;;;;24.86;35.47;99111.63;4365098;32;20110;-73
2022/07/09 11:25:43;;;;;;;3.08;1.15;;;;;;;25.02;35.40;99104.88;4365045;32;20145;-73
2022/07/09 11:28:24;;;;;;;4.20;1.20;;;;;;;24.90;35.44;99113.62;4365059;32;20094;-73
2022/07/09 11:31:02;;;;;;;1.52;0.90;;;;;;;24.96;35.73;99120.78;4364590;32;20146;-73
2022/07/09 11:36:17;;;;;;;0.85;0.70;;;;;;;25.21;34.58;99113.72;4365038;32;20105;-73
2022/07/09 11:38:52;;;;;;;2.05;0.80;;;;;;;25.31;34.16;99097.94;4364944;32;20169;-73
2022/07/09 11:41:20;;;;;;;3.17;0.98;;;;;;;25.58;34.51;99102.97;4364963;32;20520;-73
2022/07/09 11:43:51;;;;;;;2.55;1.00;;;;;;;25.29;34.34;99082.09;4364848;32;20103;-73
2022/07/09 11:46:19;;;;;;;1.65;0.80;;;;;;;25.17;34.33;99075.81;4364874;32;20087;-73